Time,TemperatureF,DewpointF,PressureIn,WindDirection,WindDirectionDegrees,WindSpeedMPH,WindSpeedGustMPH,Humidity,HourlyPrecipIn,Conditions,Clouds,dailyrainin,SoftwareType,DateUTC
2014-07-26 00:05:00,81.7,77.1,30.10,South,176,0.0,1.0,86,0.00,,,0.00,Wunderground v.1.15,2014-07-26 04:05:00,
2014-07-26 00:10:00,81.6,77.0,30.10,South,176,0.0,0.0,86,0.00,,,0.00,Wunderground v.1.15,2014-07-26 04:10:00,
2014-07-26 00:15:00,81.6,77.0,30.11,SSW,202,0.0,0.0,86,0.00,,,0.00,Wunderground v.1.15,2014-07-26 04:15:00,
2014-07-26 00:20:00,81.6,77.0,30.10,SSW,201,0.0,0.0,86,0.00,,,0.00,Wunderground v.1.15,2014-07-26 04:20:00,
2014-07-26 00:25:00,81.6,77.0,30.10,SSW,201,0.0,1.0,86,0.00,,,0.00,Wunderground v.1.15,2014-07-26 04:25:00,
2014-07-26 00:30:00,81.6,77.0,30.11,South,184,0.0,0.0,86,0.00,,,0.00,Wunderground v.1.15,2014-07-26 04:30:00,
2014-07-26 00:40:00,81.7,77.1,30.10,South,183,0.0,0.0,86,0.00,,,0.00,Wunderground v.1.15,2014-07-26 04:40:00,
2014-07-26 00:45:00,81.7,77.1,30.10,South,183,0.0,0.0,86,0.00,,,0.00,Wunderground v.1.15,2014-07-26 04:45:00,
2014-07-26 00:50:00,81.7,77.1,30.10,South,184,0.0,0.0,86,0.00,,,0.00,Wunderground v.1.15,2014-07-26 04:50:00,
2014-07-26 00:55:00,81.6,77.0,30.10,South,184,0.0,0.0,86,0.00,,,0.00,Wunderground v.1.15,2014-07-26 04:55:00,
2014-07-26 01:00:00,81.6,77.0,30.11,South,184,0.0,0.0,86,0.00,,,0.00,Wunderground v.1.15,2014-07-26 05:00:00,
2014-07-26 01:05:00,81.6,77.0,30.10,South,183,0.0,0.0,86,0.00,,,0.00,Wunderground v.1.15,2014-07-26 05:05:00,
2014-07-26 01:15:00,81.6,77.0,30.10,South,177,0.0,0.0,86,0.00,,,0.00,Wunderground v.1.15,2014-07-26 05:15:00,
2014-07-26 01:20:00,81.5,76.9,30.10,South,177,0.0,0.0,86,0.00,,,0.00,Wunderground v.1.15,2014-07-26 05:20:00,
2014-07-26 01:30:00,81.3,76.7,30.10,South,178,0.0,0.0,86,0.00,,,0.00,Wunderground v.1.15,2014-07-26 05:30:00,
2014-07-26 01:35:00,81.2,76.6,30.10,South,177,0.0,2.0,86,0.00,,,0.00,Wunderground v.1.15,2014-07-26 05:35:00,
2014-07-26 01:40:00,81.2,77.0,30.10,South,177,0.0,2.0,87,0.00,,,0.00,Wunderground v.1.15,2014-07-26 05:40:00,
2014-07-26 01:45:00,81.4,77.2,30.10,South,177,0.0,2.0,87,0.00,,,0.00,Wunderground v.1.15,2014-07-26 05:45:00,
2014-07-26 01:50:00,81.4,77.2,30.09,South,177,0.0,2.0,87,0.00,,,0.00,Wunderground v.1.15,2014-07-26 05:50:00,
2014-07-26 01:55:00,81.4,76.8,30.09,South,178,0.0,2.0,86,0.00,,,0.00,Wunderground v.1.15,2014-07-26 05:55:00,
2014-07-26 02:00:00,81.3,76.7,30.09,South,179,0.0,2.0,86,0.00,,,0.00,Wunderground v.1.15,2014-07-26 06:00:00,
2014-07-26 02:05:00,81.3,77.1,30.08,South,179,0.0,2.0,87,0.00,,,0.00,Wunderground v.1.15,2014-07-26 06:05:00,
2014-07-26 02:15:00,81.0,76.8,30.08,South,179,0.0,0.0,87,0.00,,,0.00,Wunderground v.1.15,2014-07-26 06:15:00,
2014-07-26 02:20:00,80.9,76.7,30.08,South,179,0.0,0.0,87,0.00,,,0.00,Wunderground v.1.15,2014-07-26 06:20:00,
2014-07-26 02:25:00,80.9,76.7,30.08,South,179,0.0,0.0,87,0.00,,,0.00,Wunderground v.1.15,2014-07-26 06:25:00,
2014-07-26 02:30:00,80.9,76.7,30.08,South,179,0.0,0.0,87,0.00,,,0.00,Wunderground v.1.15,2014-07-26 06:30:00,
2014-07-26 02:35:00,80.8,76.6,30.08,South,179,0.0,0.0,87,0.00,,,0.00,Wunderground v.1.15,2014-07-26 06:35:00,
2014-07-26 02:40:00,80.7,76.8,30.08,South,179,0.0,0.0,88,0.00,,,0.00,Wunderground v.1.15,2014-07-26 06:40:00,
2014-07-26 02:45:00,80.7,76.8,30.08,South,179,0.0,0.0,88,0.00,,,0.00,Wunderground v.1.15,2014-07-26 06:45:00,
2014-07-26 02:50:00,80.4,76.5,30.07,South,179,0.0,0.0,88,0.00,,,0.00,Wunderground v.1.15,2014-07-26 06:50:00,
2014-07-26 02:55:00,80.4,76.5,30.07,South,179,0.0,0.0,88,0.00,,,0.00,Wunderground v.1.15,2014-07-26 06:55:00,
2014-07-26 03:00:00,80.4,76.5,30.07,South,178,0.0,0.0,88,0.00,,,0.00,Wunderground v.1.15,2014-07-26 07:00:00,
2014-07-26 03:05:00,80.4,76.5,30.07,South,178,0.0,0.0,88,0.00,,,0.00,Wunderground v.1.15,2014-07-26 07:05:00,
2014-07-26 03:15:00,80.3,76.4,30.07,South,177,0.0,0.0,88,0.00,,,0.00,Wunderground v.1.15,2014-07-26 07:15:00,
2014-07-26 03:25:00,80.1,76.2,30.07,South,179,0.0,0.0,88,0.00,,,0.00,Wunderground v.1.15,2014-07-26 07:25:00,
2014-07-26 03:30:00,80.3,76.4,30.07,SSW,205,0.0,1.0,88,0.00,,,0.00,Wunderground v.1.15,2014-07-26 07:30:00,
2014-07-26 03:35:00,80.5,76.6,30.07,SW,222,0.0,1.0,88,0.00,,,0.00,Wunderground v.1.15,2014-07-26 07:35:00,
2014-07-26 03:40:00,80.4,76.5,30.07,SW,223,0.0,0.0,88,0.00,,,0.00,Wunderground v.1.15,2014-07-26 07:40:00,
2014-07-26 03:45:00,80.4,76.5,30.07,SW,223,0.0,0.0,88,0.00,,,0.00,Wunderground v.1.15,2014-07-26 07:45:00,
2014-07-26 03:50:00,80.3,76.4,30.07,SW,222,0.0,0.0,88,0.00,,,0.00,Wunderground v.1.15,2014-07-26 07:50:00,
2014-07-26 03:55:00,80.3,76.4,30.07,SW,222,0.0,0.0,88,0.00,,,0.00,Wunderground v.1.15,2014-07-26 07:55:00,
2014-07-26 04:00:00,80.3,76.4,30.07,SW,222,0.0,0.0,88,0.00,,,0.00,Wunderground v.1.15,2014-07-26 08:00:00,
2014-07-26 04:05:00,80.2,76.3,30.07,SW,222,0.0,0.0,88,0.00,,,0.00,Wunderground v.1.15,2014-07-26 08:05:00,
2014-07-26 04:15:00,80.0,76.1,30.07,SW,230,0.0,0.0,88,0.00,,,0.00,Wunderground v.1.15,2014-07-26 08:15:00,
2014-07-26 04:20:00,80.0,76.5,30.07,SW,229,0.0,0.0,89,0.00,,,0.00,Wunderground v.1.15,2014-07-26 08:20:00,
2014-07-26 04:30:00,80.0,76.5,30.07,SW,229,0.0,0.0,89,0.00,,,0.00,Wunderground v.1.15,2014-07-26 08:30:00,
2014-07-26 04:35:00,79.9,76.4,30.06,SW,229,0.0,1.0,89,0.00,,,0.00,Wunderground v.1.15,2014-07-26 08:35:00,
2014-07-26 04:40:00,79.8,76.3,30.06,SW,229,0.0,1.0,89,0.00,,,0.00,Wunderground v.1.15,2014-07-26 08:40:00,
2014-07-26 04:45:00,79.7,76.2,30.06,SW,230,0.0,1.0,89,0.00,,,0.00,Wunderground v.1.15,2014-07-26 08:45:00,
2014-07-26 04:50:00,79.7,76.2,30.06,SW,229,0.0,1.0,89,0.00,,,0.00,Wunderground v.1.15,2014-07-26 08:50:00,
2014-07-26 05:00:00,79.6,76.1,30.06,SW,230,0.0,1.0,89,0.00,,,0.00,Wunderground v.1.15,2014-07-26 09:00:00,
2014-07-26 05:05:00,79.6,76.1,30.06,SW,230,0.0,1.0,89,0.00,,,0.00,Wunderground v.1.15,2014-07-26 09:05:00,
2014-07-26 05:15:00,79.4,75.9,30.06,SW,232,0.0,1.0,89,0.00,,,0.00,Wunderground v.1.15,2014-07-26 09:15:00,
2014-07-26 05:20:00,79.4,75.9,30.06,North,8,0.0,0.0,89,0.00,,,0.00,Wunderground v.1.15,2014-07-26 09:20:00,
2014-07-26 05:25:00,79.5,76.0,30.06,North,8,0.0,0.0,89,0.00,,,0.00,Wunderground v.1.15,2014-07-26 09:25:00,
2014-07-26 05:35:00,79.6,76.1,30.06,North,8,0.0,0.0,89,0.00,,,0.00,Wunderground v.1.15,2014-07-26 09:35:00,
2014-07-26 05:40:00,79.6,76.1,30.07,North,8,0.0,0.0,89,0.00,,,0.00,Wunderground v.1.15,2014-07-26 09:40:00,
2014-07-26 05:45:00,79.6,76.1,30.06,North,8,0.0,0.0,89,0.00,,,0.00,Wunderground v.1.15,2014-07-26 09:45:00,
2014-07-26 05:50:00,79.5,76.0,30.06,North,8,0.0,0.0,89,0.00,,,0.00,Wunderground v.1.15,2014-07-26 09:50:00,
2014-07-26 05:55:00,79.4,75.9,30.07,North,8,0.0,0.0,89,0.00,,,0.00,Wunderground v.1.15,2014-07-26 09:55:00,
2014-07-26 06:05:00,79.3,76.1,30.07,North,8,0.0,0.0,90,0.00,,,0.00,Wunderground v.1.15,2014-07-26 10:05:00,
2014-07-26 06:15:00,79.4,75.9,30.07,North,8,0.0,1.0,89,0.00,,,0.00,Wunderground v.1.15,2014-07-26 10:15:00,
2014-07-26 06:20:00,79.3,76.1,30.07,North,8,0.0,0.0,90,0.00,,,0.00,Wunderground v.1.15,2014-07-26 10:20:00,